Aeroporto :
LOGIN :

Iscrizione | Disclaimer

   EN    FR    IT 

 










Sommario :    VFR   VFR Marginale   IFR   IFR Intensivo   IFR Molto Intensivo
Visibilità : 
Base nubi : 
>= 8 km
>= 3000ft
5 / 8 km
1000 / 3000 ft
1500m / 5 km
500 / 1000 ft
800 / 1500m
200 / 500 ft
< 800m
< 200 ft
Simboli :   Temporali  Nebbia  Neve Forte  Precipitazioni Forti  Vento > 20 kt
SIGMETs :   Varie  Temporali  Ghiacco  Turbolenza  Onda orograficha  Ceneri Vulcaniche






- Altitudine del aeroporto : 124 ft
- Codice IATA : NHT


EGWU - RAF Northolt

ULTIMO METAR :
  • 171150Z 36001KT 9999 FEW020 SCT160 BKN200 07/04 Q1011 NOSIG RMK BLU BLU

METARs OBSOLETI :
  • 171127Z 33003KT 9000 HZ FEW070 BKN160 06/04 Q1010 NOSIG RMK BLU BLU
  • 171050Z 32003KT 8000 BR FEW038 BKN150 05/04 Q1011 NOSIG RMK BLU BLU
  • 171023Z 32003KT 6000 BR FEW020 BKN140 04/04 Q1011 BECMG 9999 NSW
  • 170950Z 03001KT 6000 BR FEW020 BKN140 03/02 Q1011 BECMG 9999 NSW RMK WHT BECMG BLU

TAF TAF EGWU
Valido dal 17 a 12 ore il 18 a 06 ore UTC


171010Z 1712/1806 03004KT 9999 FEW010 SCT025
BECMG 1719/1721 BKN012
BECMG 1721/1723 3000 -RADZ BKN004
TEMPO 1723/1804 1200 RADZ OVC001
BECMG 1804/1806 9999 NSW BKN008



MetMap, La meteo Aeronautica in un colpo d'occhio ! - Copyright ORBIFLY Dicembre 2007 - Disclaimer

ORBIFLY MET'MAP TEAM :

Programmazione e sviluppo : Alexandra Zaïnal
Concezione e sviluppo : Baudouin d'Aumeries
Co-Programmazione e sviluppo : Marc-Olivier Méhu
Supporto tecnico e logistico : Manuel Goepfert
Aiuto per la traduzione : Arnaldo La Scala

Contatto : metmap@orbifly.com




FONTI E CREDITI :

   NOAA